sensor_id;sensor_type;location;lat;lon;timestamp;temperature;humidity
37518;DHT22;23366;52.498;13.446;2022-09-21T00:02:25;10.60;99.90
37518;DHT22;23366;52.498;13.446;2022-09-21T00:04:50;10.60;99.90
37518;DHT22;23366;52.498;13.446;2022-09-21T00:07:16;10.70;99.90
37518;DHT22;23366;52.498;13.446;2022-09-21T00:09:41;10.60;99.90
37518;DHT22;23366;52.498;13.446;2022-09-21T00:12:07;10.60;99.90
37518;DHT22;23366;52.498;13.446;2022-09-21T00:14:33;10.60;99.90
37518;DHT22;23366;52.498;13.446;2022-09-21T00:16:59;10.60;99.90
37518;DHT22;23366;52.498;13.446;2022-09-21T00:19:24;10.60;99.90
37518;DHT22;23366;52.498;13.446;2022-09-21T00:21:53;10.60;99.90
37518;DHT22;23366;52.498;13.446;2022-09-21T00:24:19;10.60;99.90
37518;DHT22;23366;52.498;13.446;2022-09-21T00:26:44;10.60;99.90
37518;DHT22;23366;52.498;13.446;2022-09-21T00:29:10;10.50;99.90
37518;DHT22;23366;52.498;13.446;2022-09-21T00:31:35;10.50;99.90
37518;DHT22;23366;52.498;13.446;2022-09-21T00:34:01;10.50;99.90
37518;DHT22;23366;52.498;13.446;2022-09-21T00:36:27;10.50;99.90
37518;DHT22;23366;52.498;13.446;2022-09-21T00:38:56;10.50;99.90
37518;DHT22;23366;52.498;13.446;2022-09-21T00:41:22;10.50;99.90
37518;DHT22;23366;52.498;13.446;2022-09-21T00:44:24;10.50;99.90
37518;DHT22;23366;52.498;13.446;2022-09-21T00:46:52;10.50;99.90
37518;DHT22;23366;52.498;13.446;2022-09-21T00:49:20;10.50;99.90
37518;DHT22;23366;52.498;13.446;2022-09-21T00:51:46;10.50;99.90
37518;DHT22;23366;52.498;13.446;2022-09-21T00:54:18;10.50;99.90
37518;DHT22;23366;52.498;13.446;2022-09-21T00:56:45;10.50;99.90
37518;DHT22;23366;52.498;13.446;2022-09-21T00:59:11;10.50;99.90
37518;DHT22;23366;52.498;13.446;2022-09-21T01:01:39;10.50;99.90
37518;DHT22;23366;52.498;13.446;2022-09-21T01:04:05;10.50;99.90
37518;DHT22;23366;52.498;13.446;2022-09-21T01:06:32;10.50;99.90
37518;DHT22;23366;52.498;13.446;2022-09-21T01:08:58;10.50;99.90
37518;DHT22;23366;52.498;13.446;2022-09-21T01:14:25;10.50;99.90
37518;DHT22;23366;52.498;13.446;2022-09-21T01:22:24;10.50;99.90
37518;DHT22;23366;52.498;13.446;2022-09-21T01:30:01;10.40;99.90
37518;DHT22;23366;52.498;13.446;2022-09-21T01:32:50;10.40;99.90
37518;DHT22;23366;52.498;13.446;2022-09-21T01:35:20;10.40;99.90
37518;DHT22;23366;52.498;13.446;2022-09-21T01:41:11;10.40;99.90
37518;DHT22;23366;52.498;13.446;2022-09-21T01:43:42;10.40;99.90
37518;DHT22;23366;52.498;13.446;2022-09-21T01:46:12;10.40;99.90
37518;DHT22;23366;52.498;13.446;2022-09-21T01:48:43;10.40;99.90
37518;DHT22;23366;52.498;13.446;2022-09-21T01:51:12;10.30;99.90
37518;DHT22;23366;52.498;13.446;2022-09-21T01:53:55;10.40;99.90
37518;DHT22;23366;52.498;13.446;2022-09-21T01:56:26;10.40;99.90
37518;DHT22;23366;52.498;13.446;2022-09-21T01:59:18;10.30;99.90
37518;DHT22;23366;52.498;13.446;2022-09-21T02:01:52;10.30;99.90
37518;DHT22;23366;52.498;13.446;2022-09-21T02:04:19;10.30;99.90
37518;DHT22;23366;52.498;13.446;2022-09-21T02:06:46;10.30;99.90
37518;DHT22;23366;52.498;13.446;2022-09-21T02:09:12;10.20;99.90
37518;DHT22;23366;52.498;13.446;2022-09-21T02:11:38;10.20;99.90
37518;DHT22;23366;52.498;13.446;2022-09-21T02:14:08;10.20;99.90
37518;DHT22;23366;52.498;13.446;2022-09-21T02:16:37;10.20;99.90
37518;DHT22;23366;52.498;13.446;2022-09-21T02:19:17;10.10;99.90
37518;DHT22;23366;52.498;13.446;2022-09-21T02:21:54;10.20;99.90
37518;DHT22;23366;52.498;13.446;2022-09-21T02:27:17;10.10;99.90
37518;DHT22;23366;52.498;13.446;2022-09-21T02:35:10;10.10;99.90
37518;DHT22;23366;52.498;13.446;2022-09-21T02:37:47;10.00;99.90
37518;DHT22;23366;52.498;13.446;2022-09-21T02:40:32;10.00;99.90
37518;DHT22;23366;52.498;13.446;2022-09-21T02:43:44;10.00;99.90
37518;DHT22;23366;52.498;13.446;2022-09-21T02:45:59;10.00;99.90
37518;DHT22;23366;52.498;13.446;2022-09-21T02:48:34;10.00;99.90
37518;DHT22;23366;52.498;13.446;2022-09-21T02:51:13;10.00;99.90
37518;DHT22;23366;52.498;13.446;2022-09-21T02:53:41;10.00;99.90
37518;DHT22;23366;52.498;13.446;2022-09-21T02:56:08;10.00;99.90
37518;DHT22;23366;52.498;13.446;2022-09-21T02:58:42;10.00;99.90
37518;DHT22;23366;52.498;13.446;2022-09-21T03:01:11;9.90;99.90
37518;DHT22;23366;52.498;13.446;2022-09-21T03:03:38;10.00;99.90
37518;DHT22;23366;52.498;13.446;2022-09-21T03:06:03;9.90;99.90
37518;DHT22;23366;52.498;13.446;2022-09-21T03:08:29;9.90;99.90
37518;DHT22;23366;52.498;13.446;2022-09-21T03:10:54;9.90;99.90
37518;DHT22;23366;52.498;13.446;2022-09-21T03:13:20;9.90;99.90
37518;DHT22;23366;52.498;13.446;2022-09-21T03:15:46;9.90;99.90
37518;DHT22;23366;52.498;13.446;2022-09-21T03:18:12;9.90;99.90
37518;DHT22;23366;52.498;13.446;2022-09-21T03:20:39;9.90;99.90
37518;DHT22;23366;52.498;13.446;2022-09-21T03:23:05;9.90;99.90
37518;DHT22;23366;52.498;13.446;2022-09-21T03:25:30;9.90;99.90
37518;DHT22;23366;52.498;13.446;2022-09-21T03:27:57;9.90;99.90
37518;DHT22;23366;52.498;13.446;2022-09-21T03:30:24;9.90;99.90
37518;DHT22;23366;52.498;13.446;2022-09-21T03:32:52;9.90;99.90
37518;DHT22;23366;52.498;13.446;2022-09-21T03:35:19;9.90;99.90
37518;DHT22;23366;52.498;13.446;2022-09-21T03:37:46;10.00;99.90
37518;DHT22;23366;52.498;13.446;2022-09-21T03:40:13;10.00;99.90
37518;DHT22;23366;52.498;13.446;2022-09-21T03:42:40;10.00;99.90
37518;DHT22;23366;52.498;13.446;2022-09-21T03:45:06;10.00;99.90
37518;DHT22;23366;52.498;13.446;2022-09-21T03:47:36;10.10;99.90
37518;DHT22;23366;52.498;13.446;2022-09-21T03:50:03;10.10;99.90
37518;DHT22;23366;52.498;13.446;2022-09-21T03:52:28;10.10;99.90
37518;DHT22;23366;52.498;13.446;2022-09-21T03:54:54;10.10;99.90
37518;DHT22;23366;52.498;13.446;2022-09-21T03:57:20;10.10;99.90
37518;DHT22;23366;52.498;13.446;2022-09-21T03:59:45;10.10;99.90
37518;DHT22;23366;52.498;13.446;2022-09-21T04:02:11;10.10;99.90
37518;DHT22;23366;52.498;13.446;2022-09-21T04:04:37;10.10;99.90
37518;DHT22;23366;52.498;13.446;2022-09-21T04:07:02;10.00;99.90
37518;DHT22;23366;52.498;13.446;2022-09-21T04:09:29;10.00;99.90
37518;DHT22;23366;52.498;13.446;2022-09-21T04:11:54;10.00;99.90
37518;DHT22;23366;52.498;13.446;2022-09-21T04:14:20;10.00;99.90
37518;DHT22;23366;52.498;13.446;2022-09-21T04:16:47;10.10;99.90
37518;DHT22;23366;52.498;13.446;2022-09-21T04:19:14;10.10;99.90
37518;DHT22;23366;52.498;13.446;2022-09-21T04:21:41;10.10;99.90
37518;DHT22;23366;52.498;13.446;2022-09-21T04:24:06;10.00;99.90
37518;DHT22;23366;52.498;13.446;2022-09-21T04:26:33;10.00;99.90
37518;DHT22;23366;52.498;13.446;2022-09-21T04:29:00;10.00;99.90
37518;DHT22;23366;52.498;13.446;2022-09-21T04:31:26;9.90;99.90
37518;DHT22;23366;52.498;13.446;2022-09-21T04:33:54;9.90;99.90
37518;DHT22;23366;52.498;13.446;2022-09-21T04:36:21;9.90;99.90
37518;DHT22;23366;52.498;13.446;2022-09-21T04:38:46;9.90;99.90
37518;DHT22;23366;52.498;13.446;2022-09-21T04:41:12;9.90;99.90
37518;DHT22;23366;52.498;13.446;2022-09-21T04:43:43;9.90;99.90
37518;DHT22;23366;52.498;13.446;2022-09-21T04:46:11;9.80;99.90
37518;DHT22;23366;52.498;13.446;2022-09-21T04:48:37;9.90;99.90
37518;DHT22;23366;52.498;13.446;2022-09-21T04:51:04;9.80;99.90
37518;DHT22;23366;52.498;13.446;2022-09-21T04:53:32;9.80;99.90
37518;DHT22;23366;52.498;13.446;2022-09-21T04:55:57;9.80;99.90
37518;DHT22;23366;52.498;13.446;2022-09-21T04:58:23;9.80;99.90
37518;DHT22;23366;52.498;13.446;2022-09-21T05:00:52;9.90;99.90
37518;DHT22;23366;52.498;13.446;2022-09-21T05:03:19;9.90;99.90
37518;DHT22;23366;52.498;13.446;2022-09-21T05:05:49;9.90;99.90
37518;DHT22;23366;52.498;13.446;2022-09-21T05:08:16;9.90;99.90
37518;DHT22;23366;52.498;13.446;2022-09-21T05:10:42;9.90;99.90
37518;DHT22;23366;52.498;13.446;2022-09-21T05:13:08;10.00;99.90
37518;DHT22;23366;52.498;13.446;2022-09-21T05:15:36;9.90;99.90
37518;DHT22;23366;52.498;13.446;2022-09-21T05:18:01;10.00;99.90
37518;DHT22;23366;52.498;13.446;2022-09-21T05:20:27;10.00;99.90
37518;DHT22;23366;52.498;13.446;2022-09-21T05:22:52;10.10;99.90
37518;DHT22;23366;52.498;13.446;2022-09-21T05:25:18;10.10;99.90
37518;DHT22;23366;52.498;13.446;2022-09-21T05:27:43;10.30;99.90
37518;DHT22;23366;52.498;13.446;2022-09-21T05:30:09;10.50;99.90
37518;DHT22;23366;52.498;13.446;2022-09-21T05:35:23;11.60;99.90
37518;DHT22;23366;52.498;13.446;2022-09-21T05:37:52;12.30;99.90
37518;DHT22;23366;52.498;13.446;2022-09-21T05:40:19;13.00;99.90
37518;DHT22;23366;52.498;13.446;2022-09-21T05:42:45;13.30;99.90
37518;DHT22;23366;52.498;13.446;2022-09-21T05:45:17;13.30;99.90
37518;DHT22;23366;52.498;13.446;2022-09-21T05:55:58;12.50;99.90
37518;DHT22;23366;52.498;13.446;2022-09-21T05:58:39;12.40;99.90
37518;DHT22;23366;52.498;13.446;2022-09-21T06:03:37;12.50;99.90
37518;DHT22;23366;52.498;13.446;2022-09-21T06:06:07;12.50;99.90
37518;DHT22;23366;52.498;13.446;2022-09-21T06:08:37;12.60;99.90
37518;DHT22;23366;52.498;13.446;2022-09-21T06:11:03;12.70;99.90
37518;DHT22;23366;52.498;13.446;2022-09-21T06:13:28;12.60;99.90
37518;DHT22;23366;52.498;13.446;2022-09-21T06:15:54;12.60;99.90
37518;DHT22;23366;52.498;13.446;2022-09-21T06:18:19;12.60;99.90
37518;DHT22;23366;52.498;13.446;2022-09-21T06:20:45;12.60;99.90
37518;DHT22;23366;52.498;13.446;2022-09-21T06:23:12;12.60;99.90
37518;DHT22;23366;52.498;13.446;2022-09-21T06:25:38;12.60;99.90
37518;DHT22;23366;52.498;13.446;2022-09-21T06:28:06;12.60;99.90
37518;DHT22;23366;52.498;13.446;2022-09-21T06:30:32;12.60;99.90
37518;DHT22;23366;52.498;13.446;2022-09-21T06:33:03;12.60;99.90
37518;DHT22;23366;52.498;13.446;2022-09-21T06:35:30;12.70;99.90
37518;DHT22;23366;52.498;13.446;2022-09-21T06:38:01;12.70;99.90
37518;DHT22;23366;52.498;13.446;2022-09-21T06:40:27;12.80;99.90
37518;DHT22;23366;52.498;13.446;2022-09-21T06:42:58;12.80;99.90
37518;DHT22;23366;52.498;13.446;2022-09-21T06:45:27;12.90;99.90
37518;DHT22;23366;52.498;13.446;2022-09-21T06:47:52;12.90;99.90
37518;DHT22;23366;52.498;13.446;2022-09-21T06:50:18;13.00;99.90
37518;DHT22;23366;52.498;13.446;2022-09-21T06:52:44;13.00;99.90
37518;DHT22;23366;52.498;13.446;2022-09-21T06:55:10;13.00;99.90
37518;DHT22;23366;52.498;13.446;2022-09-21T06:57:36;13.00;99.90
37518;DHT22;23366;52.498;13.446;2022-09-21T07:00:07;13.00;99.90
37518;DHT22;23366;52.498;13.446;2022-09-21T07:02:33;13.10;99.90
37518;DHT22;23366;52.498;13.446;2022-09-21T07:04:59;13.20;99.90
37518;DHT22;23366;52.498;13.446;2022-09-21T07:07:29;13.30;99.90
37518;DHT22;23366;52.498;13.446;2022-09-21T07:09:55;13.50;99.90
37518;DHT22;23366;52.498;13.446;2022-09-21T07:12:22;13.70;99.90
37518;DHT22;23366;52.498;13.446;2022-09-21T07:14:50;14.00;99.90
37518;DHT22;23366;52.498;13.446;2022-09-21T07:17:16;14.20;99.90
37518;DHT22;23366;52.498;13.446;2022-09-21T07:19:41;14.40;99.90
37518;DHT22;23366;52.498;13.446;2022-09-21T07:22:07;14.60;99.90
37518;DHT22;23366;52.498;13.446;2022-09-21T07:24:33;14.70;99.90
37518;DHT22;23366;52.498;13.446;2022-09-21T07:26:58;14.90;99.90
37518;DHT22;23366;52.498;13.446;2022-09-21T07:29:24;15.10;99.90
37518;DHT22;23366;52.498;13.446;2022-09-21T07:31:49;15.30;99.90
37518;DHT22;23366;52.498;13.446;2022-09-21T07:34:15;15.50;99.90
37518;DHT22;23366;52.498;13.446;2022-09-21T07:36:41;15.70;99.90
37518;DHT22;23366;52.498;13.446;2022-09-21T07:39:08;15.90;99.90
37518;DHT22;23366;52.498;13.446;2022-09-21T07:41:34;16.00;99.90
37518;DHT22;23366;52.498;13.446;2022-09-21T07:44:00;16.20;99.90
37518;DHT22;23366;52.498;13.446;2022-09-21T07:46:26;16.30;99.90
37518;DHT22;23366;52.498;13.446;2022-09-21T07:48:55;16.50;99.90
37518;DHT22;23366;52.498;13.446;2022-09-21T07:51:21;16.70;99.90
37518;DHT22;23366;52.498;13.446;2022-09-21T07:53:48;16.80;99.90
37518;DHT22;23366;52.498;13.446;2022-09-21T07:56:17;17.00;99.90
37518;DHT22;23366;52.498;13.446;2022-09-21T07:58:44;17.30;99.90
37518;DHT22;23366;52.498;13.446;2022-09-21T08:01:29;17.50;99.90
37518;DHT22;23366;52.498;13.446;2022-09-21T08:03:57;17.70;99.90
37518;DHT22;23366;52.498;13.446;2022-09-21T08:06:24;17.70;99.90
37518;DHT22;23366;52.498;13.446;2022-09-21T08:08:50;17.70;99.90
37518;DHT22;23366;52.498;13.446;2022-09-21T08:11:20;17.60;99.90
37518;DHT22;23366;52.498;13.446;2022-09-21T08:13:47;17.60;99.90
37518;DHT22;23366;52.498;13.446;2022-09-21T08:16:13;17.60;99.90
37518;DHT22;23366;52.498;13.446;2022-09-21T08:18:40;17.60;99.90
37518;DHT22;23366;52.498;13.446;2022-09-21T08:21:06;17.60;99.90
37518;DHT22;23366;52.498;13.446;2022-09-21T08:23:33;17.60;99.90
37518;DHT22;23366;52.498;13.446;2022-09-21T08:26:03;17.60;99.90
37518;DHT22;23366;52.498;13.446;2022-09-21T08:28:32;17.50;99.90
37518;DHT22;23366;52.498;13.446;2022-09-21T08:31:00;17.50;99.90
37518;DHT22;23366;52.498;13.446;2022-09-21T08:33:26;17.50;99.90
37518;DHT22;23366;52.498;13.446;2022-09-21T08:35:56;17.40;99.90
37518;DHT22;23366;52.498;13.446;2022-09-21T08:38:22;17.30;99.90
37518;DHT22;23366;52.498;13.446;2022-09-21T08:40:48;17.30;99.90
37518;DHT22;23366;52.498;13.446;2022-09-21T08:43:35;17.30;99.90
37518;DHT22;23366;52.498;13.446;2022-09-21T08:46:10;17.30;99.90
37518;DHT22;23366;52.498;13.446;2022-09-21T08:48:44;17.30;99.90
37518;DHT22;23366;52.498;13.446;2022-09-21T08:51:16;17.40;99.90
37518;DHT22;23366;52.498;13.446;2022-09-21T08:53:47;17.40;99.90
37518;DHT22;23366;52.498;13.446;2022-09-21T08:56:14;17.60;99.90
37518;DHT22;23366;52.498;13.446;2022-09-21T08:58:41;17.80;99.90
37518;DHT22;23366;52.498;13.446;2022-09-21T09:04:08;18.20;99.90
37518;DHT22;23366;52.498;13.446;2022-09-21T09:09:14;18.60;99.90
37518;DHT22;23366;52.498;13.446;2022-09-21T09:12:08;18.80;99.90
37518;DHT22;23366;52.498;13.446;2022-09-21T09:14:55;19.10;99.90
37518;DHT22;23366;52.498;13.446;2022-09-21T09:17:40;19.20;99.90
37518;DHT22;23366;52.498;13.446;2022-09-21T09:20:17;19.40;99.90
37518;DHT22;23366;52.498;13.446;2022-09-21T09:23:09;19.50;99.90
37518;DHT22;23366;52.498;13.446;2022-09-21T09:25:40;19.60;99.90
37518;DHT22;23366;52.498;13.446;2022-09-21T09:31:04;19.50;99.90
37518;DHT22;23366;52.498;13.446;2022-09-21T09:33:45;19.50;99.90
37518;DHT22;23366;52.498;13.446;2022-09-21T09:36:14;19.40;99.90
37518;DHT22;23366;52.498;13.446;2022-09-21T09:39:03;19.40;99.90
37518;DHT22;23366;52.498;13.446;2022-09-21T09:41:59;19.20;99.90
37518;DHT22;23366;52.498;13.446;2022-09-21T09:47:40;18.90;99.90
37518;DHT22;23366;52.498;13.446;2022-09-21T09:50:18;18.60;99.90
37518;DHT22;23366;52.498;13.446;2022-09-21T09:52:47;18.50;99.90
37518;DHT22;23366;52.498;13.446;2022-09-21T09:55:22;18.30;99.90
37518;DHT22;23366;52.498;13.446;2022-09-21T09:57:49;18.20;99.90
37518;DHT22;23366;52.498;13.446;2022-09-21T10:00:18;18.10;99.90
37518;DHT22;23366;52.498;13.446;2022-09-21T10:02:52;18.10;99.90
37518;DHT22;23366;52.498;13.446;2022-09-21T10:05:34;18.10;99.90
37518;DHT22;23366;52.498;13.446;2022-09-21T10:08:02;18.00;99.90
37518;DHT22;23366;52.498;13.446;2022-09-21T10:12:56;17.90;99.90
37518;DHT22;23366;52.498;13.446;2022-09-21T10:15:26;17.80;99.90
37518;DHT22;23366;52.498;13.446;2022-09-21T10:18:16;17.80;99.90
37518;DHT22;23366;52.498;13.446;2022-09-21T10:21:02;17.80;99.90
37518;DHT22;23366;52.498;13.446;2022-09-21T10:23:30;17.90;99.90
37518;DHT22;23366;52.498;13.446;2022-09-21T10:26:16;17.80;99.90
37518;DHT22;23366;52.498;13.446;2022-09-21T10:29:00;17.90;99.90
37518;DHT22;23366;52.498;13.446;2022-09-21T10:31:30;17.90;99.90
37518;DHT22;23366;52.498;13.446;2022-09-21T10:34:14;17.90;99.90
37518;DHT22;23366;52.498;13.446;2022-09-21T10:36:41;17.80;99.90
37518;DHT22;23366;52.498;13.446;2022-09-21T10:39:30;17.90;99.90
37518;DHT22;23366;52.498;13.446;2022-09-21T10:42:03;18.00;99.90
37518;DHT22;23366;52.498;13.446;2022-09-21T10:44:44;18.10;99.90
37518;DHT22;23366;52.498;13.446;2022-09-21T10:47:15;18.20;99.90
37518;DHT22;23366;52.498;13.446;2022-09-21T10:49:47;18.40;99.90
37518;DHT22;23366;52.498;13.446;2022-09-21T10:52:15;18.60;99.90
37518;DHT22;23366;52.498;13.446;2022-09-21T10:54:43;18.80;99.90
37518;DHT22;23366;52.498;13.446;2022-09-21T10:57:17;19.10;99.90
37518;DHT22;23366;52.498;13.446;2022-09-21T10:59:43;19.30;99.90
37518;DHT22;23366;52.498;13.446;2022-09-21T11:05:11;19.70;99.30
37518;DHT22;23366;52.498;13.446;2022-09-21T11:07:45;19.80;98.90
37518;DHT22;23366;52.498;13.446;2022-09-21T11:10:15;19.90;98.80
37518;DHT22;23366;52.498;13.446;2022-09-21T11:16:01;19.70;98.80
37518;DHT22;23366;52.498;13.446;2022-09-21T11:18:37;19.50;99.20
37518;DHT22;23366;52.498;13.446;2022-09-21T11:27:28;18.80;98.90
37518;DHT22;23366;52.498;13.446;2022-09-21T11:30:11;18.50;99.10
37518;DHT22;23366;52.498;13.446;2022-09-21T11:33:00;18.20;99.40
37518;DHT22;23366;52.498;13.446;2022-09-21T11:35:55;18.10;99.50
37518;DHT22;23366;52.498;13.446;2022-09-21T11:38:49;18.10;99.30
37518;DHT22;23366;52.498;13.446;2022-09-21T11:41:28;18.30;98.40
37518;DHT22;23366;52.498;13.446;2022-09-21T11:47:22;18.80;97.60
37518;DHT22;23366;52.498;13.446;2022-09-21T11:52:44;18.50;98.50
37518;DHT22;23366;52.498;13.446;2022-09-21T12:04:04;18.00;99.20
37518;DHT22;23366;52.498;13.446;2022-09-21T12:09:25;17.80;99.90
37518;DHT22;23366;52.498;13.446;2022-09-21T12:12:13;17.70;99.90
37518;DHT22;23366;52.498;13.446;2022-09-21T12:17:52;17.60;99.90
37518;DHT22;23366;52.498;13.446;2022-09-21T12:23:19;17.20;99.90
37518;DHT22;23366;52.498;13.446;2022-09-21T12:25:49;17.10;99.90
37518;DHT22;23366;52.498;13.446;2022-09-21T12:28:27;17.00;99.90
37518;DHT22;23366;52.498;13.446;2022-09-21T12:31:01;16.90;99.90
37518;DHT22;23366;52.498;13.446;2022-09-21T12:34:02;16.70;99.90
37518;DHT22;23366;52.498;13.446;2022-09-21T12:36:41;16.60;99.90
37518;DHT22;23366;52.498;13.446;2022-09-21T12:39:31;16.50;99.90
37518;DHT22;23366;52.498;13.446;2022-09-21T12:42:20;16.50;99.90
37518;DHT22;23366;52.498;13.446;2022-09-21T12:44:54;16.50;99.80
37518;DHT22;23366;52.498;13.446;2022-09-21T12:47:43;16.50;99.90
37518;DHT22;23366;52.498;13.446;2022-09-21T12:50:23;16.60;99.90
37518;DHT22;23366;52.498;13.446;2022-09-21T12:52:50;16.60;99.90
37518;DHT22;23366;52.498;13.446;2022-09-21T12:58:00;16.60;99.90
37518;DHT22;23366;52.498;13.446;2022-09-21T13:00:35;16.60;99.90
37518;DHT22;23366;52.498;13.446;2022-09-21T13:03:10;16.70;99.90
37518;DHT22;23366;52.498;13.446;2022-09-21T13:08:25;16.90;99.90
37518;DHT22;23366;52.498;13.446;2022-09-21T13:13:32;17.00;99.90
37518;DHT22;23366;52.498;13.446;2022-09-21T13:15:59;17.00;99.90
37518;DHT22;23366;52.498;13.446;2022-09-21T13:18:35;17.00;99.90
37518;DHT22;23366;52.498;13.446;2022-09-21T13:21:25;17.00;99.90
37518;DHT22;23366;52.498;13.446;2022-09-21T13:24:00;17.00;99.90
37518;DHT22;23366;52.498;13.446;2022-09-21T13:26:41;17.00;99.90
37518;DHT22;23366;52.498;13.446;2022-09-21T13:34:31;16.80;99.90
37518;DHT22;23366;52.498;13.446;2022-09-21T13:39:36;16.80;99.90
37518;DHT22;23366;52.498;13.446;2022-09-21T13:44:51;16.70;99.90
37518;DHT22;23366;52.498;13.446;2022-09-21T13:47:30;16.70;99.90
37518;DHT22;23366;52.498;13.446;2022-09-21T13:49:56;16.70;99.90
37518;DHT22;23366;52.498;13.446;2022-09-21T13:52:31;16.80;99.90
37518;DHT22;23366;52.498;13.446;2022-09-21T13:55:03;16.80;99.90
37518;DHT22;23366;52.498;13.446;2022-09-21T13:57:57;16.80;99.90
37518;DHT22;23366;52.498;13.446;2022-09-21T14:03:18;16.80;99.90
37518;DHT22;23366;52.498;13.446;2022-09-21T14:05:47;16.70;99.90
37518;DHT22;23366;52.498;13.446;2022-09-21T14:13:39;16.60;99.90
37518;DHT22;23366;52.498;13.446;2022-09-21T14:18:54;16.60;99.90
37518;DHT22;23366;52.498;13.446;2022-09-21T14:21:20;16.60;99.90
37518;DHT22;23366;52.498;13.446;2022-09-21T14:29:26;16.50;99.90
37518;DHT22;23366;52.498;13.446;2022-09-21T14:31:56;16.50;99.90
37518;DHT22;23366;52.498;13.446;2022-09-21T14:34:25;16.50;99.80
37518;DHT22;23366;52.498;13.446;2022-09-21T14:36:55;16.40;99.90
37518;DHT22;23366;52.498;13.446;2022-09-21T14:39:36;16.40;99.90
37518;DHT22;23366;52.498;13.446;2022-09-21T14:42:10;16.50;99.90
37518;DHT22;23366;52.498;13.446;2022-09-21T14:44:42;16.40;99.90
37518;DHT22;23366;52.498;13.446;2022-09-21T14:47:29;16.40;99.90
37518;DHT22;23366;52.498;13.446;2022-09-21T14:50:21;16.40;99.90
37518;DHT22;23366;52.498;13.446;2022-09-21T14:53:02;16.40;99.90
37518;DHT22;23366;52.498;13.446;2022-09-21T15:01:39;16.30;99.90
37518;DHT22;23366;52.498;13.446;2022-09-21T15:13:14;16.20;99.40
37518;DHT22;23366;52.498;13.446;2022-09-21T15:19:12;16.10;99.80
37518;DHT22;23366;52.498;13.446;2022-09-21T15:21:43;16.10;99.70
37518;DHT22;23366;52.498;13.446;2022-09-21T15:24:24;16.00;99.80
37518;DHT22;23366;52.498;13.446;2022-09-21T15:26:53;16.00;99.40
37518;DHT22;23366;52.498;13.446;2022-09-21T15:29:27;16.00;99.90
37518;DHT22;23366;52.498;13.446;2022-09-21T15:31:54;16.00;99.90
37518;DHT22;23366;52.498;13.446;2022-09-21T15:34:20;16.00;99.90
37518;DHT22;23366;52.498;13.446;2022-09-21T15:36:46;15.90;99.90
37518;DHT22;23366;52.498;13.446;2022-09-21T15:39:26;15.90;99.90
37518;DHT22;23366;52.498;13.446;2022-09-21T15:42:13;15.90;99.90
37518;DHT22;23366;52.498;13.446;2022-09-21T15:44:43;15.80;99.50
37518;DHT22;23366;52.498;13.446;2022-09-21T15:47:13;15.80;99.50
37518;DHT22;23366;52.498;13.446;2022-09-21T15:49:40;15.80;99.40
37518;DHT22;23366;52.498;13.446;2022-09-21T15:52:16;15.70;99.30
37518;DHT22;23366;52.498;13.446;2022-09-21T15:54:50;15.80;99.80
37518;DHT22;23366;52.498;13.446;2022-09-21T15:57:31;15.70;99.90
37518;DHT22;23366;52.498;13.446;2022-09-21T16:00:04;15.70;99.90
37518;DHT22;23366;52.498;13.446;2022-09-21T16:02:35;15.60;99.90
37518;DHT22;23366;52.498;13.446;2022-09-21T16:05:02;15.60;99.90
37518;DHT22;23366;52.498;13.446;2022-09-21T16:07:36;15.60;99.90
37518;DHT22;23366;52.498;13.446;2022-09-21T16:13:12;15.50;99.90
37518;DHT22;23366;52.498;13.446;2022-09-21T16:16:04;15.50;99.90
37518;DHT22;23366;52.498;13.446;2022-09-21T16:23:56;15.40;99.90
37518;DHT22;23366;52.498;13.446;2022-09-21T16:26:26;15.30;99.90
37518;DHT22;23366;52.498;13.446;2022-09-21T16:29:22;15.30;99.90
37518;DHT22;23366;52.498;13.446;2022-09-21T16:31:50;15.30;99.90
37518;DHT22;23366;52.498;13.446;2022-09-21T16:34:29;15.20;99.90
37518;DHT22;23366;52.498;13.446;2022-09-21T16:37:02;15.20;99.90
37518;DHT22;23366;52.498;13.446;2022-09-21T16:39:41;15.20;99.90
37518;DHT22;23366;52.498;13.446;2022-09-21T16:42:08;15.10;99.90
37518;DHT22;23366;52.498;13.446;2022-09-21T16:44:36;15.10;99.90
37518;DHT22;23366;52.498;13.446;2022-09-21T16:47:19;15.10;99.90
37518;DHT22;23366;52.498;13.446;2022-09-21T16:49:50;15.00;99.90
37518;DHT22;23366;52.498;13.446;2022-09-21T16:52:20;15.00;99.90
37518;DHT22;23366;52.498;13.446;2022-09-21T16:54:46;15.00;99.90
37518;DHT22;23366;52.498;13.446;2022-09-21T16:57:12;14.90;99.90
37518;DHT22;23366;52.498;13.446;2022-09-21T16:59:39;14.90;99.90
37518;DHT22;23366;52.498;13.446;2022-09-21T17:02:05;14.80;99.90
37518;DHT22;23366;52.498;13.446;2022-09-21T17:04:33;14.80;99.90
37518;DHT22;23366;52.498;13.446;2022-09-21T17:06:59;14.70;99.90
37518;DHT22;23366;52.498;13.446;2022-09-21T17:09:42;14.70;99.90
37518;DHT22;23366;52.498;13.446;2022-09-21T17:12:10;14.60;99.90
37518;DHT22;23366;52.498;13.446;2022-09-21T17:14:37;14.60;99.90
37518;DHT22;23366;52.498;13.446;2022-09-21T17:17:21;14.60;99.90
37518;DHT22;23366;52.498;13.446;2022-09-21T17:19:48;14.50;99.90
37518;DHT22;23366;52.498;13.446;2022-09-21T17:22:15;14.50;99.90
37518;DHT22;23366;52.498;13.446;2022-09-21T17:24:45;14.40;99.90
37518;DHT22;23366;52.498;13.446;2022-09-21T17:27:12;14.40;99.90
37518;DHT22;23366;52.498;13.446;2022-09-21T17:29:37;14.30;99.90
37518;DHT22;23366;52.498;13.446;2022-09-21T17:32:04;14.30;99.90
37518;DHT22;23366;52.498;13.446;2022-09-21T17:34:34;14.20;99.90
37518;DHT22;23366;52.498;13.446;2022-09-21T17:37:00;14.20;99.90
37518;DHT22;23366;52.498;13.446;2022-09-21T17:39:26;14.20;99.90
37518;DHT22;23366;52.498;13.446;2022-09-21T17:41:53;14.10;99.90
37518;DHT22;23366;52.498;13.446;2022-09-21T17:44:51;14.10;99.90
37518;DHT22;23366;52.498;13.446;2022-09-21T17:47:24;14.10;99.90
37518;DHT22;23366;52.498;13.446;2022-09-21T17:49:53;14.00;99.90
37518;DHT22;23366;52.498;13.446;2022-09-21T17:52:21;14.00;99.90
37518;DHT22;23366;52.498;13.446;2022-09-21T17:55:09;14.00;99.90
37518;DHT22;23366;52.498;13.446;2022-09-21T18:00:34;14.00;99.90
37518;DHT22;23366;52.498;13.446;2022-09-21T18:03:03;14.00;99.90
37518;DHT22;23366;52.498;13.446;2022-09-21T18:05:29;13.90;99.90
37518;DHT22;23366;52.498;13.446;2022-09-21T18:07:55;13.90;99.90
37518;DHT22;23366;52.498;13.446;2022-09-21T18:10:23;13.90;99.90
37518;DHT22;23366;52.498;13.446;2022-09-21T18:13:05;13.80;99.90
37518;DHT22;23366;52.498;13.446;2022-09-21T18:18:16;13.70;99.90
37518;DHT22;23366;52.498;13.446;2022-09-21T18:20:56;13.70;99.90